createdAt,value
2022-12-28T00:03:17.604Z,11.5
2022-12-28T00:12:03.472Z,11.5
2022-12-28T00:17:39.395Z,11.5
2022-12-28T00:23:14.735Z,11.5
2022-12-28T00:28:50.921Z,11.5
2022-12-28T00:34:39.273Z,11.6
2022-12-28T00:40:23.742Z,11.7
2022-12-28T00:46:29.093Z,11.6
2022-12-28T00:52:01.734Z,11.6
2022-12-28T00:57:43.448Z,11.6
2022-12-28T01:03:21.734Z,11.6
2022-12-28T01:08:57.431Z,11.5
2022-12-28T01:14:32.614Z,11.4
2022-12-28T01:20:35.412Z,11.3
2022-12-28T01:26:15.476Z,11.3
2022-12-28T01:31:50.524Z,11.2
2022-12-28T01:37:39.896Z,11.2
2022-12-28T01:43:15.198Z,11.2
2022-12-28T01:49:27.719Z,11.2
2022-12-28T01:55:01.521Z,11.2
2022-12-28T02:00:37.600Z,11.2
2022-12-28T02:06:22.797Z,11.1
2022-12-28T02:11:58.427Z,11.1
2022-12-28T02:17:33.569Z,11.1
2022-12-28T02:23:21.042Z,11.1
2022-12-28T02:29:14.216Z,11.1
2022-12-28T02:34:58.384Z,11.1
2022-12-28T02:40:48.937Z,11
2022-12-28T02:46:46.159Z,11
2022-12-28T02:52:19.205Z,11
2022-12-28T02:57:57.023Z,11
2022-12-28T03:03:38.189Z,10.9
2022-12-28T03:09:15.842Z,10.8
2022-12-28T03:14:50.696Z,10.8
2022-12-28T03:20:47.223Z,10.7
2022-12-28T03:26:23.141Z,10.6
2022-12-28T03:32:02.801Z,10.6
2022-12-28T03:37:38.069Z,10.5
2022-12-28T03:43:21.492Z,10.5
2022-12-28T03:49:39.125Z,10.5
2022-12-28T03:55:14.246Z,10.5
2022-12-28T04:01:11.489Z,10.4
2022-12-28T04:07:16.323Z,10.4
2022-12-28T04:13:17.033Z,10.4
2022-12-28T04:18:54.597Z,10.4
2022-12-28T04:24:29.624Z,10.3
2022-12-28T04:30:06.153Z,10.3
2022-12-28T04:35:43.457Z,10.3
2022-12-28T04:42:00.890Z,10.3
2022-12-28T04:48:00.126Z,10.3
2022-12-28T04:53:34.226Z,10.2
2022-12-28T04:59:08.919Z,10.2
2022-12-28T05:04:44.631Z,10.2
2022-12-28T05:10:28.204Z,10.1
2022-12-28T05:16:12.205Z,10
2022-12-28T05:22:04.728Z,10.1
2022-12-28T05:27:42.651Z,10
2022-12-28T05:33:17.928Z,10
2022-12-28T05:38:53.649Z,10
2022-12-28T05:44:29.796Z,10
2022-12-28T05:50:05.118Z,10.1
2022-12-28T05:55:41.847Z,10
2022-12-28T06:01:17.400Z,10
2022-12-28T06:06:53.665Z,10
2022-12-28T06:12:29.074Z,9.9
2022-12-28T06:18:10.766Z,9.9
2022-12-28T06:23:54.566Z,9.9
2022-12-28T06:29:29.404Z,9.9
2022-12-28T06:35:16.211Z,9.9
2022-12-28T06:47:27.478Z,9.9
2022-12-28T06:53:00.069Z,9.9
2022-12-28T06:58:35.176Z,9.9
2022-12-28T07:04:10.511Z,10
2022-12-28T07:09:46.970Z,10.1
2022-12-28T07:15:22.375Z,10
2022-12-28T07:20:57.635Z,10.2
2022-12-28T07:27:03.529Z,10.1
2022-12-28T07:33:04.984Z,9.5
2022-12-28T07:38:40.157Z,8.2
2022-12-28T07:44:15.287Z,9.4
2022-12-28T07:49:51.349Z,8.4
2022-12-28T07:55:58.202Z,8.2
2022-12-28T08:01:45.569Z,8.4
2022-12-28T08:07:37.238Z,8.6
2022-12-28T08:13:21.709Z,8.7
2022-12-28T08:19:07.060Z,8.8
2022-12-28T08:24:51.760Z,9.2
2022-12-28T08:30:30.630Z,9.1
2022-12-28T08:36:18.708Z,9.4
2022-12-28T08:42:00.715Z,9.7
2022-12-28T08:48:52.159Z,9.9
2022-12-28T08:54:24.865Z,10
2022-12-28T09:00:01.187Z,10.4
2022-12-28T09:05:39.720Z,10.9
2022-12-28T09:12:00.688Z,11.1
2022-12-28T09:17:57.621Z,11.4
2022-12-28T09:23:39.892Z,11.6
2022-12-28T09:29:43.303Z,11.2
2022-12-28T09:35:23.414Z,11.3
2022-12-28T09:41:10.179Z,11.6
2022-12-28T09:46:48.838Z,11.8
2022-12-28T09:52:25.247Z,11.9
2022-12-28T09:58:00.905Z,12.3
2022-12-28T10:03:36.708Z,12.5
2022-12-28T10:09:11.973Z,13
2022-12-28T10:14:47.694Z,13.3
2022-12-28T10:20:26.550Z,13.3
2022-12-28T10:26:10.141Z,13.9
2022-12-28T10:31:45.763Z,14.3
2022-12-28T10:37:21.386Z,14.3
2022-12-28T10:42:56.838Z,14.6
2022-12-28T10:48:32.321Z,14.9
2022-12-28T10:54:07.671Z,15.1
2022-12-28T11:00:06.025Z,15.3
2022-12-28T11:05:41.567Z,15.6
2022-12-28T11:11:18.711Z,15.9
2022-12-28T11:16:56.946Z,16.1
2022-12-28T11:22:35.657Z,16.3
2022-12-28T11:28:15.402Z,16.5
2022-12-28T11:33:59.154Z,16.8
2022-12-28T11:39:35.766Z,17.1
2022-12-28T11:45:19.793Z,17.4
2022-12-28T11:50:58.629Z,17.9
2022-12-28T11:56:36.106Z,18
2022-12-28T12:02:11.574Z,17.9
2022-12-28T12:07:52.237Z,18.1
2022-12-28T12:13:27.834Z,18.4
2022-12-28T12:19:03.300Z,18.4
2022-12-28T12:24:40.029Z,18.6
2022-12-28T12:30:16.597Z,18.7
2022-12-28T12:35:56.979Z,19.2
2022-12-28T12:41:32.156Z,19.6
2022-12-28T12:47:32.371Z,19.8
2022-12-28T12:53:06.473Z,19.8
2022-12-28T12:58:41.943Z,20.2
2022-12-28T13:04:17.298Z,20.4
2022-12-28T13:09:53.465Z,20.5
2022-12-28T13:15:37.724Z,20.4
2022-12-28T13:21:14.715Z,20.7
2022-12-28T13:26:50.817Z,20.3
2022-12-28T13:32:32.847Z,20.7
2022-12-28T13:38:13.814Z,21
2022-12-28T13:43:49.278Z,21
2022-12-28T13:49:47.454Z,21.5
2022-12-28T13:55:21.724Z,21.8
2022-12-28T14:00:57.085Z,21.7
2022-12-28T14:06:35.611Z,21.9
2022-12-28T14:12:11.913Z,22.4
2022-12-28T14:17:54.488Z,22.6
2022-12-28T14:23:50.337Z,23.2
2022-12-28T14:29:39.632Z,23.2
2022-12-28T14:35:23.259Z,21.5
2022-12-28T14:41:01.367Z,20.4
2022-12-28T14:46:59.798Z,19.9
2022-12-28T14:52:34.096Z,19.3
2022-12-28T14:58:09.402Z,18.9
2022-12-28T15:03:45.110Z,18.6
2022-12-28T15:09:21.828Z,18.5
2022-12-28T15:14:57.434Z,18.2
2022-12-28T15:20:33.051Z,17.8
2022-12-28T15:26:13.572Z,17.6
2022-12-28T15:31:59.779Z,17.4
2022-12-28T15:37:40.487Z,17.1
2022-12-28T15:43:24.577Z,17
2022-12-28T15:49:41.981Z,17
2022-12-28T15:55:16.421Z,16.9
2022-12-28T16:00:58.321Z,16.3
2022-12-28T16:06:44.436Z,16.2
2022-12-28T16:12:21.525Z,15.7
2022-12-28T16:18:05.437Z,15.4
2022-12-28T16:24:09.852Z,15.2
2022-12-28T16:29:51.578Z,15.3
2022-12-28T16:35:44.841Z,15.1
2022-12-28T16:41:19.673Z,14.6
2022-12-28T16:46:55.064Z,15
2022-12-28T16:52:30.280Z,15.2
2022-12-28T16:58:06.142Z,14.5
2022-12-28T17:03:42.170Z,14.2
2022-12-28T17:09:18.612Z,14.3
2022-12-28T17:15:05.186Z,14.9
2022-12-28T17:21:06.593Z,15.1
2022-12-28T17:26:45.855Z,15.1
2022-12-28T17:32:23.428Z,15.1
2022-12-28T17:38:06.808Z,15.1
2022-12-28T17:43:42.196Z,15
2022-12-28T17:49:17.347Z,15.2
2022-12-28T17:54:53.715Z,15.4
2022-12-28T18:00:37.841Z,15.4
2022-12-28T18:06:22.266Z,15.3
2022-12-28T18:11:58.491Z,15.4
2022-12-28T18:17:36.067Z,15.5
2022-12-28T18:23:21.355Z,15.5
2022-12-28T18:30:15.364Z,15.6
2022-12-28T18:35:50.227Z,15.6
2022-12-28T18:41:30.568Z,15.5
2022-12-28T18:47:19.889Z,15.5
2022-12-28T18:52:55.067Z,15.5
2022-12-28T18:58:39.318Z,15.5
2022-12-28T19:04:14.803Z,15.4
2022-12-28T19:09:58.284Z,15.4
2022-12-28T19:15:49.431Z,15.3
2022-12-28T19:21:26.923Z,15.3
2022-12-28T19:27:02.257Z,15.2
2022-12-28T19:32:41.127Z,15.2
2022-12-28T19:38:20.819Z,15.2
2022-12-28T19:44:06.478Z,15.2
2022-12-28T19:50:08.583Z,15.4
2022-12-28T19:56:08.124Z,15.4
2022-12-28T20:01:43.508Z,15.4
2022-12-28T20:07:20.900Z,15.5
2022-12-28T20:12:55.806Z,15.5
2022-12-28T20:18:31.969Z,15.5
2022-12-28T20:24:14.748Z,15.4
2022-12-28T20:30:09.833Z,15.4
2022-12-28T20:35:47.458Z,15.4
2022-12-28T20:41:25.697Z,15.2
2022-12-28T20:47:06.409Z,15.1
2022-12-28T20:52:46.700Z,15.1
2022-12-28T20:58:45.366Z,15.1
2022-12-28T21:05:19.210Z,15.1
2022-12-28T21:10:56.793Z,15.1
2022-12-28T21:16:44.221Z,15.1
2022-12-28T21:22:42.328Z,15.1
2022-12-28T21:28:18.768Z,15.1
2022-12-28T21:34:39.160Z,15
2022-12-28T21:40:14.984Z,15
2022-12-28T21:45:51.335Z,14.9
2022-12-28T21:51:39.080Z,14.9
2022-12-28T21:57:59.797Z,14.9
2022-12-28T22:03:37.931Z,14.9
2022-12-28T22:09:34.809Z,14.9
2022-12-28T22:15:10.073Z,14.9
2022-12-28T22:21:11.205Z,14.9
2022-12-28T22:27:02.491Z,14.8
2022-12-28T22:32:43.071Z,14.8
2022-12-28T22:38:18.193Z,14.7
2022-12-28T22:43:59.225Z,14.8
2022-12-28T22:49:56.608Z,14.7
2022-12-28T22:55:29.249Z,14.6
2022-12-28T23:01:10.404Z,14.5
2022-12-28T23:07:00.051Z,14.5
2022-12-28T23:12:40.258Z,14.5
2022-12-28T23:18:25.152Z,14.5
2022-12-28T23:24:01.030Z,14.5
2022-12-28T23:29:42.016Z,14.5
2022-12-28T23:35:39.072Z,14.4
2022-12-28T23:41:35.805Z,14.4
2022-12-28T23:47:56.512Z,14.4
2022-12-28T23:53:30.301Z,14.3
2022-12-28T23:59:10.771Z,14.3
